createdAt,value
2022-11-29T00:01:43.208Z,63.10
2022-11-29T00:04:12.340Z,69.32
2022-11-29T00:06:42.156Z,68.53
2022-11-29T00:09:13.810Z,65.72
2022-11-29T00:12:01.020Z,65.15
2022-11-29T00:14:30.115Z,60.20
2022-11-29T00:17:02.233Z,64.18
2022-11-29T00:19:31.284Z,61.90
2022-11-29T00:22:01.443Z,51.58
2022-11-29T00:24:32.453Z,50.30
2022-11-29T00:27:01.890Z,54.42
2022-11-29T00:29:31.555Z,53.75
2022-11-29T00:32:00.428Z,50.40
2022-11-29T00:34:29.269Z,59.42
2022-11-29T00:36:57.625Z,58.35
2022-11-29T00:39:27.753Z,58.90
2022-11-29T00:41:56.615Z,53.35
2022-11-29T00:44:25.090Z,52.13
2022-11-29T00:46:53.293Z,47.53
2022-11-29T00:49:21.614Z,54.60
2022-11-29T00:51:50.020Z,51.72
2022-11-29T00:54:18.652Z,50.60
2022-11-29T00:56:48.698Z,57.40
2022-11-29T00:59:17.320Z,63.65
2022-11-29T01:01:45.749Z,125.38
2022-11-29T01:04:14.654Z,87.15
2022-11-29T01:06:42.939Z,235.18
2022-11-29T01:09:11.778Z,78.85
2022-11-29T01:11:40.098Z,104.00
2022-11-29T01:14:09.818Z,84.55
2022-11-29T01:16:38.203Z,59.95
2022-11-29T01:19:07.807Z,115.38
2022-11-29T01:21:36.083Z,78.07
2022-11-29T01:24:04.556Z,87.35
2022-11-29T01:26:33.341Z,63.17
2022-11-29T01:29:02.037Z,91.53
2022-11-29T01:31:35.990Z,108.20
2022-11-29T01:34:07.366Z,74.93
2022-11-29T01:36:35.936Z,92.15
2022-11-29T01:39:07.356Z,93.53
2022-11-29T01:41:38.441Z,59.80
2022-11-29T01:44:46.991Z,78.55
2022-11-29T01:47:17.842Z,48.03
2022-11-29T01:49:49.017Z,81.50
2022-11-29T01:52:22.944Z,50.78
2022-11-29T01:54:57.072Z,54.85
2022-11-29T01:57:26.408Z,64.10
2022-11-29T02:00:08.766Z,57.80
2022-11-29T02:02:43.728Z,69.82
2022-11-29T02:05:14.789Z,64.55
2022-11-29T02:07:47.475Z,52.60
2022-11-29T02:10:17.164Z,58.72
2022-11-29T02:12:58.073Z,46.47
2022-11-29T02:15:37.871Z,52.35
2022-11-29T02:18:14.729Z,52.22
2022-11-29T02:21:14.719Z,54.17
2022-11-29T02:24:10.983Z,64.35
2022-11-29T02:27:20.694Z,45.67
2022-11-29T02:30:25.365Z,64.10
2022-11-29T02:33:50.833Z,78.55
2022-11-29T02:36:51.171Z,62.83
2022-11-29T02:40:25.852Z,66.55
2022-11-29T02:43:19.018Z,89.68
2022-11-29T02:46:16.083Z,65.40
2022-11-29T02:48:59.051Z,85.45
2022-11-29T02:51:36.456Z,68.72
2022-11-29T02:54:13.951Z,74.32
2022-11-29T02:56:48.055Z,56.60
2022-11-29T02:59:33.529Z,63.08
2022-11-29T03:02:09.999Z,71.20
2022-11-29T03:04:49.539Z,47.88
2022-11-29T03:07:28.421Z,52.08
2022-11-29T03:10:05.469Z,60.78
2022-11-29T03:12:41.694Z,52.03
2022-11-29T03:15:29.352Z,79.15
2022-11-29T03:18:21.753Z,48.75
2022-11-29T03:21:08.916Z,48.63
2022-11-29T03:23:40.891Z,43.47
2022-11-29T03:26:12.885Z,44.83
2022-11-29T03:28:49.011Z,43.67
2022-11-29T03:31:26.301Z,51.50
2022-11-29T03:34:06.437Z,45.22
2022-11-29T03:36:46.883Z,48.10
2022-11-29T03:39:22.421Z,59.78
2022-11-29T03:41:57.850Z,68.85
2022-11-29T03:44:32.155Z,51.05
2022-11-29T03:47:06.098Z,106.13
2022-11-29T03:49:42.320Z,74.50
2022-11-29T03:52:20.508Z,70.72
2022-11-29T03:55:01.863Z,84.00
2022-11-29T03:57:37.753Z,56.60
2022-11-29T04:00:11.114Z,69.63
2022-11-29T04:03:34.283Z,58.28
2022-11-29T04:06:22.086Z,58.08
2022-11-29T04:09:31.566Z,65.30
2022-11-29T04:12:29.150Z,52.92
2022-11-29T04:15:45.988Z,51.88
2022-11-29T04:19:01.162Z,50.38
2022-11-29T04:21:53.321Z,55.70
2022-11-29T04:24:51.526Z,58.78
2022-11-29T04:27:49.832Z,59.13
2022-11-29T04:30:23.446Z,58.88
2022-11-29T04:33:48.704Z,64.63
2022-11-29T04:36:50.389Z,64.32
2022-11-29T04:39:54.785Z,74.82
2022-11-29T04:43:29.464Z,72.43
2022-11-29T04:46:47.965Z,59.22
2022-11-29T04:49:58.321Z,115.85
2022-11-29T04:52:47.893Z,55.20
2022-11-29T04:55:31.079Z,62.05
2022-11-29T04:58:18.083Z,56.83
2022-11-29T05:00:59.516Z,86.90
2022-11-29T05:03:40.974Z,66.35
2022-11-29T05:06:25.583Z,141.55
2022-11-29T05:09:05.108Z,84.30
2022-11-29T05:11:49.089Z,65.78
2022-11-29T05:14:32.592Z,82.13
2022-11-29T05:17:26.457Z,70.82
2022-11-29T05:20:14.505Z,78.53
2022-11-29T05:22:58.895Z,58.13
2022-11-29T05:25:41.415Z,60.28
2022-11-29T05:28:17.572Z,58.35
2022-11-29T05:31:05.340Z,56.05
2022-11-29T05:34:00.470Z,57.83
2022-11-29T05:36:40.088Z,57.00
2022-11-29T05:39:34.318Z,53.92
2022-11-29T05:42:41.376Z,49.38
2022-11-29T05:45:18.234Z,55.08
2022-11-29T05:47:55.251Z,51.28
2022-11-29T05:50:30.288Z,53.45
2022-11-29T05:53:12.151Z,52.67
2022-11-29T05:55:55.237Z,51.92
2022-11-29T05:58:32.928Z,47.35
2022-11-29T06:01:06.522Z,53.78
2022-11-29T06:03:40.578Z,50.85
2022-11-29T06:06:18.365Z,53.60
2022-11-29T06:08:56.126Z,54.80
2022-11-29T06:11:30.029Z,49.72
2022-11-29T06:14:06.647Z,56.22
2022-11-29T06:16:56.913Z,64.35
2022-11-29T06:19:54.280Z,62.72
2022-11-29T06:22:46.129Z,60.55
2022-11-29T06:25:27.605Z,68.65
2022-11-29T06:28:30.272Z,66.70
2022-11-29T06:31:07.126Z,81.95
2022-11-29T06:33:47.132Z,65.15
2022-11-29T06:36:21.306Z,74.85
2022-11-29T06:38:51.448Z,75.60
2022-11-29T06:41:23.940Z,82.28
2022-11-29T06:43:53.314Z,76.75
2022-11-29T06:46:36.211Z,68.53
2022-11-29T06:49:11.125Z,78.38
2022-11-29T06:51:50.412Z,79.22
2022-11-29T06:54:47.226Z,79.50
2022-11-29T06:57:21.993Z,81.90
2022-11-29T07:00:06.560Z,81.57
2022-11-29T07:03:03.120Z,137.77
2022-11-29T07:05:33.980Z,82.85
2022-11-29T07:08:07.018Z,83.57
2022-11-29T07:10:41.438Z,79.53
2022-11-29T07:13:12.621Z,120.82
2022-11-29T07:15:48.264Z,86.65
2022-11-29T07:18:28.814Z,85.13
2022-11-29T07:21:09.036Z,92.63
2022-11-29T07:23:45.249Z,150.70
2022-11-29T07:26:22.762Z,91.95
2022-11-29T07:29:10.668Z,103.53
2022-11-29T07:31:53.460Z,107.32
2022-11-29T07:34:31.334Z,105.47
2022-11-29T07:37:09.451Z,139.45
2022-11-29T07:39:51.750Z,117.47
2022-11-29T07:42:32.980Z,173.27
2022-11-29T07:45:14.217Z,180.30
2022-11-29T07:47:42.416Z,246.75
2022-11-29T07:50:14.988Z,123.68
2022-11-29T07:52:43.364Z,158.07
2022-11-29T07:55:18.669Z,259.98
2022-11-29T07:57:49.357Z,127.95
2022-11-29T08:00:19.623Z,176.43
2022-11-29T08:02:48.909Z,156.90
2022-11-29T08:05:17.737Z,137.27
2022-11-29T08:07:46.588Z,141.00
2022-11-29T08:10:17.524Z,184.40
2022-11-29T08:12:50.356Z,138.23
2022-11-29T08:15:21.975Z,152.98
2022-11-29T08:17:50.978Z,186.52
2022-11-29T08:20:19.544Z,164.88
2022-11-29T08:22:56.435Z,154.75
2022-11-29T08:25:24.778Z,241.73
2022-11-29T08:27:55.627Z,190.73
2022-11-29T08:30:24.496Z,169.45
2022-11-29T08:32:53.682Z,157.60
2022-11-29T08:35:24.292Z,158.23
2022-11-29T08:37:52.628Z,167.07
2022-11-29T08:40:20.962Z,144.45
2022-11-29T08:42:49.280Z,138.93
2022-11-29T08:45:19.087Z,211.73
2022-11-29T08:47:47.561Z,231.60
2022-11-29T08:50:19.013Z,160.07
2022-11-29T08:53:07.319Z,199.65
2022-11-29T08:55:39.941Z,165.18
2022-11-29T08:58:11.139Z,146.50
2022-11-29T09:00:41.993Z,132.10
2022-11-29T09:03:27.969Z,171.50
2022-11-29T09:05:57.558Z,154.57
2022-11-29T09:08:25.854Z,157.98
2022-11-29T09:10:54.940Z,132.70
2022-11-29T09:13:23.115Z,180.10
2022-11-29T09:15:52.921Z,166.68
2022-11-29T09:18:22.740Z,184.60
2022-11-29T09:20:50.914Z,131.00
2022-11-29T09:23:19.123Z,127.68
2022-11-29T09:25:50.292Z,147.18
2022-11-29T09:28:18.584Z,115.45
2022-11-29T09:30:46.825Z,117.50
2022-11-29T09:33:16.509Z,117.78
2022-11-29T09:35:44.727Z,112.05
2022-11-29T09:38:13.573Z,162.88
2022-11-29T09:40:49.770Z,139.45
2022-11-29T09:43:29.029Z,137.85
2022-11-29T09:46:04.535Z,138.05
2022-11-29T09:49:00.837Z,107.25
2022-11-29T09:51:44.008Z,116.93
2022-11-29T09:54:30.633Z,134.00
2022-11-29T09:56:59.160Z,102.85
2022-11-29T09:59:31.860Z,118.35
2022-11-29T10:02:05.455Z,113.05
2022-11-29T10:04:42.723Z,115.40
2022-11-29T10:07:21.914Z,97.20
2022-11-29T10:09:55.796Z,118.82
2022-11-29T10:12:35.358Z,102.53
2022-11-29T10:15:14.043Z,95.57
2022-11-29T10:17:50.868Z,103.15
2022-11-29T10:20:23.419Z,87.20
2022-11-29T10:22:56.652Z,88.85
2022-11-29T10:25:27.710Z,95.80
2022-11-29T10:27:55.960Z,86.38
2022-11-29T10:30:24.348Z,87.70
2022-11-29T10:32:58.337Z,77.68
2022-11-29T10:35:29.471Z,78.05
2022-11-29T10:40:55.689Z,67.63
2022-11-29T10:43:25.303Z,106.80
2022-11-29T10:45:56.244Z,86.32
2022-11-29T10:48:28.552Z,70.38
2022-11-29T10:50:58.198Z,63.55
2022-11-29T10:53:30.788Z,74.32
2022-11-29T10:56:06.750Z,74.47
2022-11-29T10:58:35.577Z,82.63
2022-11-29T11:01:06.952Z,71.13
2022-11-29T11:03:42.471Z,68.60
2022-11-29T11:06:15.077Z,77.75
2022-11-29T11:08:47.354Z,100.15
2022-11-29T11:11:16.200Z,86.13
2022-11-29T11:13:44.463Z,82.35
2022-11-29T11:16:19.093Z,78.25
2022-11-29T11:18:49.113Z,73.18
2022-11-29T11:21:22.857Z,86.60
2022-11-29T11:23:58.470Z,85.18
2022-11-29T11:26:27.963Z,81.10
2022-11-29T11:29:00.092Z,78.65
2022-11-29T11:31:34.168Z,81.80
2022-11-29T11:34:27.256Z,84.75
2022-11-29T11:37:25.028Z,77.50
2022-11-29T11:39:57.018Z,77.38
2022-11-29T11:42:38.879Z,70.00
2022-11-29T11:45:28.529Z,76.30
2022-11-29T11:47:59.522Z,68.78
2022-11-29T11:50:35.009Z,71.18
2022-11-29T11:53:08.208Z,72.18
2022-11-29T11:55:40.930Z,66.93
2022-11-29T11:58:18.978Z,68.63
2022-11-29T12:01:07.132Z,72.50
2022-11-29T12:03:43.132Z,69.43
2022-11-29T12:06:30.359Z,71.60
2022-11-29T12:09:07.051Z,76.20
2022-11-29T12:11:46.730Z,79.07
2022-11-29T12:14:26.902Z,82.88
2022-11-29T12:17:07.092Z,75.57
2022-11-29T12:19:47.771Z,77.50
2022-11-29T12:22:24.511Z,80.30
2022-11-29T12:25:00.462Z,80.72
2022-11-29T12:27:28.768Z,72.50
2022-11-29T12:29:58.365Z,74.90
2022-11-29T12:32:59.120Z,73.63
2022-11-29T12:35:54.968Z,69.88
2022-11-29T12:38:43.224Z,65.15
2022-11-29T12:41:30.802Z,65.38
2022-11-29T12:44:13.726Z,60.38
2022-11-29T12:47:02.119Z,66.13
2022-11-29T12:49:49.688Z,71.18
2022-11-29T12:52:24.753Z,69.90
2022-11-29T12:55:03.171Z,70.65
2022-11-29T12:57:40.381Z,62.17
2022-11-29T13:00:13.065Z,61.25
2022-11-29T13:02:57.414Z,65.03
2022-11-29T13:05:40.370Z,62.65
2022-11-29T13:08:29.466Z,67.82
2022-11-29T13:11:08.156Z,68.28
2022-11-29T13:13:44.093Z,61.78
2022-11-29T13:16:31.495Z,72.10
2022-11-29T13:19:06.744Z,76.47
2022-11-29T13:21:42.159Z,63.72
2022-11-29T13:24:16.741Z,63.78
2022-11-29T13:26:46.054Z,66.10
2022-11-29T13:29:18.847Z,62.28
2022-11-29T13:31:49.153Z,60.28
2022-11-29T13:34:25.973Z,62.45
2022-11-29T13:37:06.411Z,68.43
2022-11-29T13:39:46.761Z,60.38
2022-11-29T13:42:23.091Z,54.88
2022-11-29T13:45:00.081Z,61.58
2022-11-29T13:47:28.417Z,60.25
2022-11-29T13:50:02.003Z,55.70
2022-11-29T13:52:41.100Z,56.55
2022-11-29T13:55:31.226Z,62.05
2022-11-29T13:58:32.644Z,53.53
2022-11-29T14:01:04.250Z,55.72
2022-11-29T14:03:38.702Z,58.05
2022-11-29T14:06:14.540Z,49.67
2022-11-29T14:09:19.810Z,58.53
2022-11-29T14:11:51.881Z,53.47
2022-11-29T14:14:27.081Z,49.90
2022-11-29T14:17:00.869Z,48.72
2022-11-29T14:19:33.947Z,49.17
2022-11-29T14:22:30.840Z,51.40
2022-11-29T14:25:49.906Z,52.85
2022-11-29T14:28:33.882Z,46.72
2022-11-29T14:31:03.309Z,45.88
2022-11-29T14:34:04.057Z,53.92
2022-11-29T14:36:51.721Z,53.25
2022-11-29T14:39:35.794Z,50.17
2022-11-29T14:42:16.958Z,57.45
2022-11-29T14:44:49.083Z,54.95
2022-11-29T14:47:29.748Z,50.13
2022-11-29T14:50:07.038Z,54.47
2022-11-29T14:52:39.280Z,52.75
2022-11-29T14:55:30.556Z,59.63
2022-11-29T14:58:22.280Z,60.17
2022-11-29T15:01:09.705Z,59.97
2022-11-29T15:03:48.564Z,71.75
2022-11-29T15:06:26.411Z,66.43
2022-11-29T15:09:04.178Z,79.35
2022-11-29T15:11:46.203Z,76.47
2022-11-29T15:14:28.793Z,72.72
2022-11-29T15:17:24.645Z,74.88
2022-11-29T15:20:26.719Z,72.00
2022-11-29T15:23:00.923Z,73.32
2022-11-29T15:25:41.191Z,78.20
2022-11-29T15:28:23.412Z,82.50
2022-11-29T15:31:02.823Z,85.90
2022-11-29T15:33:31.204Z,83.10
2022-11-29T15:36:07.372Z,83.10
2022-11-29T15:38:45.951Z,82.68
2022-11-29T15:41:22.263Z,92.72
2022-11-29T15:43:54.929Z,84.88
2022-11-29T15:46:26.938Z,102.75
2022-11-29T15:48:56.555Z,79.00
2022-11-29T15:51:31.200Z,101.30
2022-11-29T15:54:13.102Z,92.90
2022-11-29T15:56:46.928Z,100.80
2022-11-29T15:59:29.266Z,94.78
2022-11-29T16:02:01.731Z,90.43
2022-11-29T16:04:30.729Z,81.55
2022-11-29T16:06:59.478Z,93.22
2022-11-29T16:09:35.292Z,99.97
2022-11-29T16:12:04.362Z,95.72
2022-11-29T16:14:32.667Z,89.25
2022-11-29T16:17:03.341Z,83.07
2022-11-29T16:19:34.798Z,89.53
2022-11-29T16:22:14.292Z,82.72
2022-11-29T16:24:55.034Z,82.40
2022-11-29T16:27:24.044Z,99.40
2022-11-29T16:29:55.040Z,86.93
2022-11-29T16:32:30.437Z,95.78
2022-11-29T16:35:07.831Z,81.50
2022-11-29T16:37:41.568Z,86.47
2022-11-29T16:40:22.737Z,88.53
2022-11-29T16:43:12.559Z,87.15
2022-11-29T16:45:42.120Z,81.07
2022-11-29T16:48:31.995Z,85.28
2022-11-29T16:51:23.755Z,78.20
2022-11-29T16:53:53.635Z,77.97
2022-11-29T16:56:27.337Z,83.57
2022-11-29T16:59:25.740Z,89.90
2022-11-29T17:01:46.187Z,102.63
2022-11-29T17:04:24.309Z,79.55
2022-11-29T17:06:54.504Z,84.60
2022-11-29T17:09:26.517Z,90.57
2022-11-29T17:11:59.712Z,94.65
2022-11-29T17:14:28.585Z,81.20
2022-11-29T17:16:57.109Z,83.82
2022-11-29T17:19:26.033Z,80.80
2022-11-29T17:21:55.248Z,72.10
2022-11-29T17:24:25.262Z,88.93
2022-11-29T17:26:54.933Z,75.15
2022-11-29T17:29:23.288Z,81.80
2022-11-29T17:31:53.196Z,81.05
2022-11-29T17:34:21.597Z,89.05
2022-11-29T17:36:49.912Z,78.50
2022-11-29T17:39:20.236Z,79.88
2022-11-29T17:41:48.838Z,75.82
2022-11-29T17:44:18.488Z,75.68
2022-11-29T17:46:46.922Z,89.60
2022-11-29T17:49:15.281Z,86.95
2022-11-29T17:51:51.659Z,98.57
2022-11-29T17:54:21.258Z,67.65
2022-11-29T17:56:49.847Z,67.03
2022-11-29T17:59:20.531Z,66.97
2022-11-29T18:01:49.306Z,67.22
2022-11-29T18:04:17.849Z,70.78
2022-11-29T18:06:50.030Z,69.53
2022-11-29T18:09:20.176Z,76.18
2022-11-29T18:11:50.651Z,78.47
2022-11-29T18:14:23.692Z,113.20
2022-11-29T18:16:52.747Z,99.50
2022-11-29T18:19:23.716Z,87.15
2022-11-29T18:21:52.581Z,104.10
2022-11-29T18:24:21.172Z,74.57
2022-11-29T18:26:49.913Z,74.13
2022-11-29T18:29:19.155Z,111.72
2022-11-29T18:31:49.124Z,96.13
2022-11-29T18:34:17.701Z,88.25
2022-11-29T18:36:48.429Z,74.97
2022-11-29T18:39:19.017Z,68.28
2022-11-29T18:41:49.360Z,92.65
2022-11-29T18:44:21.825Z,85.68
2022-11-29T18:46:52.269Z,73.50
2022-11-29T18:49:20.731Z,105.40
2022-11-29T18:51:50.406Z,100.20
2022-11-29T18:54:20.026Z,69.70
2022-11-29T18:56:51.200Z,82.55
2022-11-29T18:59:19.884Z,61.05
2022-11-29T19:01:51.284Z,70.93
2022-11-29T19:04:21.527Z,84.63
2022-11-29T19:06:50.406Z,79.55
2022-11-29T19:09:22.031Z,64.10
2022-11-29T19:11:51.319Z,66.63
2022-11-29T19:14:20.545Z,96.75
2022-11-29T19:16:51.206Z,65.63
2022-11-29T19:19:20.132Z,68.45
2022-11-29T19:21:48.853Z,115.03
2022-11-29T19:24:18.626Z,72.97
2022-11-29T19:26:49.068Z,92.38
2022-11-29T19:29:17.787Z,57.80
2022-11-29T19:31:46.255Z,74.43
2022-11-29T19:34:15.893Z,83.78
2022-11-29T19:36:45.339Z,76.15
2022-11-29T19:39:16.159Z,73.78
2022-11-29T19:41:46.857Z,64.80
2022-11-29T19:44:15.323Z,68.88
2022-11-29T19:46:47.033Z,58.78
2022-11-29T19:49:16.861Z,76.85
2022-11-29T19:51:45.125Z,63.50
2022-11-29T19:54:13.631Z,79.55
2022-11-29T19:56:42.151Z,97.40
2022-11-29T19:59:10.846Z,77.72
2022-11-29T20:01:42.337Z,78.90
2022-11-29T20:04:13.057Z,75.47
2022-11-29T20:06:42.775Z,71.25
2022-11-29T20:09:11.995Z,63.35
2022-11-29T20:11:40.529Z,56.47
2022-11-29T20:14:09.278Z,70.22
2022-11-29T20:16:39.227Z,58.58
2022-11-29T20:19:12.966Z,60.75
2022-11-29T20:21:46.871Z,58.10
2022-11-29T20:24:17.518Z,58.35
2022-11-29T20:26:48.007Z,57.35
2022-11-29T20:29:17.101Z,76.60
2022-11-29T20:31:50.530Z,62.08
2022-11-29T20:34:19.912Z,54.60
2022-11-29T20:37:21.210Z,60.63
2022-11-29T20:39:55.767Z,59.92
2022-11-29T20:43:03.075Z,54.90
2022-11-29T20:45:31.956Z,59.08
2022-11-29T20:48:09.397Z,55.28
2022-11-29T20:50:38.591Z,51.35
2022-11-29T20:53:23.466Z,48.80
2022-11-29T20:55:51.765Z,52.97
2022-11-29T20:58:23.199Z,50.95
2022-11-29T21:00:51.630Z,52.78
2022-11-29T21:03:21.435Z,56.83
2022-11-29T21:05:50.381Z,56.08
2022-11-29T21:08:22.188Z,57.58
2022-11-29T21:10:51.503Z,52.30
2022-11-29T21:13:22.319Z,55.22
2022-11-29T21:15:51.656Z,52.13
2022-11-29T21:18:24.091Z,49.83
2022-11-29T21:21:08.309Z,50.60
2022-11-29T21:23:50.652Z,49.20
2022-11-29T21:26:26.003Z,47.13
2022-11-29T21:29:07.197Z,50.35
2022-11-29T21:31:36.391Z,49.30
2022-11-29T21:34:05.889Z,48.95
2022-11-29T21:36:34.174Z,45.10
2022-11-29T21:39:05.421Z,45.45
2022-11-29T21:41:33.947Z,44.17
2022-11-29T21:44:07.000Z,43.40
2022-11-29T21:46:36.440Z,41.17
2022-11-29T21:49:05.345Z,41.28
2022-11-29T21:51:33.725Z,43.38
2022-11-29T21:54:04.089Z,43.33
2022-11-29T21:56:32.327Z,46.33
2022-11-29T21:59:00.568Z,47.08
2022-11-29T22:01:29.541Z,42.45
2022-11-29T22:03:57.829Z,39.38
2022-11-29T22:06:26.557Z,41.88
2022-11-29T22:08:54.978Z,44.90
2022-11-29T22:11:31.781Z,45.55
2022-11-29T22:14:18.262Z,43.28
2022-11-29T22:16:49.438Z,37.42
2022-11-29T22:19:19.556Z,42.60
2022-11-29T22:21:50.338Z,39.35
2022-11-29T22:24:21.549Z,44.80
2022-11-29T22:26:53.494Z,42.83
2022-11-29T22:29:22.803Z,46.30
2022-11-29T22:31:53.993Z,44.15
2022-11-29T22:34:23.584Z,42.42
2022-11-29T22:36:52.160Z,46.13
2022-11-29T22:39:20.410Z,43.45
2022-11-29T22:41:54.336Z,52.28
2022-11-29T22:44:23.649Z,56.08
2022-11-29T22:46:52.866Z,57.38
2022-11-29T22:49:21.145Z,59.22
2022-11-29T22:51:49.809Z,54.17
2022-11-29T22:54:18.023Z,58.88
2022-11-29T22:56:47.173Z,62.72
2022-11-29T22:59:16.766Z,61.90
2022-11-29T23:01:45.033Z,59.50
2022-11-29T23:04:14.298Z,63.47
2022-11-29T23:06:45.200Z,54.53
2022-11-29T23:09:16.702Z,54.42
2022-11-29T23:11:50.976Z,55.05
2022-11-29T23:14:21.043Z,47.72
2022-11-29T23:16:49.480Z,52.25
2022-11-29T23:19:17.853Z,48.13
2022-11-29T23:21:46.631Z,49.17
2022-11-29T23:24:15.330Z,49.83
2022-11-29T23:26:46.581Z,48.20
2022-11-29T23:29:17.324Z,46.50
2022-11-29T23:31:47.909Z,48.03
2022-11-29T23:34:16.359Z,48.10
2022-11-29T23:36:49.670Z,47.55
2022-11-29T23:39:20.732Z,49.33
2022-11-29T23:41:49.040Z,51.83
2022-11-29T23:44:17.213Z,41.63
2022-11-29T23:46:46.796Z,49.05
2022-11-29T23:49:14.987Z,52.60
2022-11-29T23:51:43.608Z,47.40
2022-11-29T23:54:12.022Z,46.17
2022-11-29T23:56:40.279Z,47.45
2022-11-29T23:59:08.712Z,45.78
